sensor_id;sensor_type;location;lat;lon;timestamp;P1;durP1;ratioP1;P2;durP2;ratioP2
54145;SDS011;65909;49.422;7.738;2023-05-10T00:00:11;31.25;;;11.30;;
54145;SDS011;65909;49.422;7.738;2023-05-10T00:02:37;50.60;;;12.93;;
54145;SDS011;65909;49.422;7.738;2023-05-10T00:05:02;31.98;;;11.35;;
54145;SDS011;65909;49.422;7.738;2023-05-10T00:07:28;22.33;;;7.75;;
54145;SDS011;65909;49.422;7.738;2023-05-10T00:09:53;12.80;;;4.30;;
54145;SDS011;65909;49.422;7.738;2023-05-10T00:12:18;8.65;;;3.47;;
54145;SDS011;65909;49.422;7.738;2023-05-10T00:14:44;10.27;;;3.10;;
54145;SDS011;65909;49.422;7.738;2023-05-10T00:17:10;5.38;;;2.20;;
54145;SDS011;65909;49.422;7.738;2023-05-10T00:19:35;5.22;;;2.35;;
54145;SDS011;65909;49.422;7.738;2023-05-10T00:22:00;3.75;;;1.95;;
54145;SDS011;65909;49.422;7.738;2023-05-10T00:24:26;3.50;;;1.70;;
54145;SDS011;65909;49.422;7.738;2023-05-10T00:26:51;2.78;;;1.83;;
54145;SDS011;65909;49.422;7.738;2023-05-10T00:29:17;3.45;;;1.73;;
54145;SDS011;65909;49.422;7.738;2023-05-10T00:31:42;3.83;;;1.77;;
54145;SDS011;65909;49.422;7.738;2023-05-10T00:34:08;3.50;;;1.60;;
54145;SDS011;65909;49.422;7.738;2023-05-10T00:36:33;4.40;;;1.67;;
54145;SDS011;65909;49.422;7.738;2023-05-10T00:38:58;3.97;;;1.40;;
54145;SDS011;65909;49.422;7.738;2023-05-10T00:41:24;5.47;;;1.63;;
54145;SDS011;65909;49.422;7.738;2023-05-10T00:43:49;3.90;;;1.60;;
54145;SDS011;65909;49.422;7.738;2023-05-10T00:46:15;1.77;;;1.13;;
54145;SDS011;65909;49.422;7.738;2023-05-10T00:48:40;4.50;;;1.38;;
54145;SDS011;65909;49.422;7.738;2023-05-10T00:51:07;2.55;;;1.30;;
54145;SDS011;65909;49.422;7.738;2023-05-10T00:53:32;2.20;;;1.40;;
54145;SDS011;65909;49.422;7.738;2023-05-10T00:56:00;2.78;;;1.50;;
54145;SDS011;65909;49.422;7.738;2023-05-10T00:58:26;6.07;;;2.10;;
54145;SDS011;65909;49.422;7.738;2023-05-10T01:00:53;4.10;;;1.98;;
54145;SDS011;65909;49.422;7.738;2023-05-10T01:03:21;4.25;;;2.10;;
54145;SDS011;65909;49.422;7.738;2023-05-10T01:05:46;3.97;;;2.08;;
54145;SDS011;65909;49.422;7.738;2023-05-10T01:14:55;3.95;;;1.85;;
54145;SDS011;65909;49.422;7.738;2023-05-10T01:17:20;3.00;;;1.70;;
54145;SDS011;65909;49.422;7.738;2023-05-10T01:19:47;3.17;;;1.50;;
54145;SDS011;65909;49.422;7.738;2023-05-10T01:30:12;2.33;;;1.48;;
54145;SDS011;65909;49.422;7.738;2023-05-10T01:38:21;3.92;;;2.03;;
54145;SDS011;65909;49.422;7.738;2023-05-10T01:44:15;7.30;;;3.05;;
54145;SDS011;65909;49.422;7.738;2023-05-10T01:46:41;9.38;;;3.88;;
54145;SDS011;65909;49.422;7.738;2023-05-10T01:49:25;11.65;;;4.10;;
54145;SDS011;65909;49.422;7.738;2023-05-10T01:51:58;9.02;;;4.05;;
54145;SDS011;65909;49.422;7.738;2023-05-10T01:54:28;7.55;;;3.50;;
54145;SDS011;65909;49.422;7.738;2023-05-10T01:56:56;9.63;;;3.53;;
54145;SDS011;65909;49.422;7.738;2023-05-10T01:59:29;6.63;;;3.42;;
54145;SDS011;65909;49.422;7.738;2023-05-10T02:02:01;7.15;;;3.50;;
54145;SDS011;65909;49.422;7.738;2023-05-10T02:04:29;12.55;;;3.33;;
54145;SDS011;65909;49.422;7.738;2023-05-10T02:06:56;6.80;;;3.03;;
54145;SDS011;65909;49.422;7.738;2023-05-10T02:09:22;6.60;;;3.28;;
54145;SDS011;65909;49.422;7.738;2023-05-10T02:11:50;8.18;;;3.50;;
54145;SDS011;65909;49.422;7.738;2023-05-10T02:14:15;6.38;;;3.20;;
54145;SDS011;65909;49.422;7.738;2023-05-10T02:16:43;6.63;;;3.83;;
54145;SDS011;65909;49.422;7.738;2023-05-10T02:19:10;7.43;;;3.33;;
54145;SDS011;65909;49.422;7.738;2023-05-10T02:21:39;6.70;;;3.30;;
54145;SDS011;65909;49.422;7.738;2023-05-10T02:24:05;5.85;;;2.97;;
54145;SDS011;65909;49.422;7.738;2023-05-10T02:26:33;6.22;;;2.80;;
54145;SDS011;65909;49.422;7.738;2023-05-10T02:29:01;5.35;;;2.42;;
54145;SDS011;65909;49.422;7.738;2023-05-10T02:31:28;5.85;;;2.90;;
54145;SDS011;65909;49.422;7.738;2023-05-10T02:33:56;6.75;;;3.13;;
54145;SDS011;65909;49.422;7.738;2023-05-10T02:36:23;5.72;;;3.00;;
54145;SDS011;65909;49.422;7.738;2023-05-10T02:38:52;8.43;;;2.90;;
54145;SDS011;65909;49.422;7.738;2023-05-10T02:41:19;4.90;;;2.63;;
54145;SDS011;65909;49.422;7.738;2023-05-10T02:43:47;6.03;;;2.40;;
54145;SDS011;65909;49.422;7.738;2023-05-10T02:46:16;5.60;;;2.45;;
54145;SDS011;65909;49.422;7.738;2023-05-10T02:48:42;8.95;;;3.03;;
54145;SDS011;65909;49.422;7.738;2023-05-10T02:51:07;5.03;;;2.60;;
54145;SDS011;65909;49.422;7.738;2023-05-10T02:53:36;5.88;;;2.55;;
54145;SDS011;65909;49.422;7.738;2023-05-10T02:56:09;5.30;;;2.35;;
54145;SDS011;65909;49.422;7.738;2023-05-10T02:58:40;5.03;;;2.33;;
54145;SDS011;65909;49.422;7.738;2023-05-10T03:01:05;7.43;;;2.67;;
54145;SDS011;65909;49.422;7.738;2023-05-10T03:03:32;7.55;;;2.90;;
54145;SDS011;65909;49.422;7.738;2023-05-10T03:05:58;8.02;;;2.80;;
54145;SDS011;65909;49.422;7.738;2023-05-10T03:08:23;5.40;;;2.80;;
54145;SDS011;65909;49.422;7.738;2023-05-10T03:13:39;7.57;;;3.17;;
54145;SDS011;65909;49.422;7.738;2023-05-10T03:16:16;7.85;;;2.75;;
54145;SDS011;65909;49.422;7.738;2023-05-10T03:19:06;5.35;;;2.72;;
54145;SDS011;65909;49.422;7.738;2023-05-10T03:21:41;5.80;;;3.00;;
54145;SDS011;65909;49.422;7.738;2023-05-10T03:24:12;5.88;;;2.92;;
54145;SDS011;65909;49.422;7.738;2023-05-10T03:26:40;9.52;;;3.22;;
54145;SDS011;65909;49.422;7.738;2023-05-10T03:29:09;7.90;;;3.70;;
54145;SDS011;65909;49.422;7.738;2023-05-10T03:31:36;6.72;;;3.03;;
54145;SDS011;65909;49.422;7.738;2023-05-10T03:34:03;5.60;;;3.45;;
54145;SDS011;65909;49.422;7.738;2023-05-10T03:36:28;6.03;;;2.97;;
54145;SDS011;65909;49.422;7.738;2023-05-10T03:38:54;5.82;;;2.80;;
54145;SDS011;65909;49.422;7.738;2023-05-10T03:41:19;7.32;;;3.05;;
54145;SDS011;65909;49.422;7.738;2023-05-10T03:43:45;9.75;;;3.03;;
54145;SDS011;65909;49.422;7.738;2023-05-10T03:46:10;6.38;;;3.30;;
54145;SDS011;65909;49.422;7.738;2023-05-10T03:48:36;9.00;;;3.75;;
54145;SDS011;65909;49.422;7.738;2023-05-10T03:51:01;9.05;;;3.38;;
54145;SDS011;65909;49.422;7.738;2023-05-10T03:53:27;8.38;;;3.15;;
54145;SDS011;65909;49.422;7.738;2023-05-10T03:55:52;6.85;;;3.95;;
54145;SDS011;65909;49.422;7.738;2023-05-10T03:58:17;6.25;;;3.08;;
54145;SDS011;65909;49.422;7.738;2023-05-10T04:00:43;10.90;;;3.85;;
54145;SDS011;65909;49.422;7.738;2023-05-10T04:03:10;6.35;;;3.40;;
54145;SDS011;65909;49.422;7.738;2023-05-10T04:05:36;7.30;;;3.60;;
54145;SDS011;65909;49.422;7.738;2023-05-10T04:08:01;12.93;;;3.58;;
54145;SDS011;65909;49.422;7.738;2023-05-10T04:10:27;8.90;;;3.88;;
54145;SDS011;65909;49.422;7.738;2023-05-10T04:12:53;7.93;;;3.97;;
54145;SDS011;65909;49.422;7.738;2023-05-10T04:15:18;12.05;;;4.00;;
54145;SDS011;65909;49.422;7.738;2023-05-10T04:17:44;6.50;;;3.58;;
54145;SDS011;65909;49.422;7.738;2023-05-10T04:20:09;7.80;;;3.22;;
54145;SDS011;65909;49.422;7.738;2023-05-10T04:22:35;9.35;;;3.10;;
54145;SDS011;65909;49.422;7.738;2023-05-10T04:25:01;8.90;;;3.70;;
54145;SDS011;65909;49.422;7.738;2023-05-10T04:27:26;7.28;;;3.58;;
54145;SDS011;65909;49.422;7.738;2023-05-10T04:29:52;9.98;;;3.63;;
54145;SDS011;65909;49.422;7.738;2023-05-10T04:32:17;6.07;;;3.10;;
54145;SDS011;65909;49.422;7.738;2023-05-10T04:34:43;6.30;;;3.40;;
54145;SDS011;65909;49.422;7.738;2023-05-10T04:37:08;8.27;;;3.97;;
54145;SDS011;65909;49.422;7.738;2023-05-10T04:39:34;7.55;;;3.25;;
54145;SDS011;65909;49.422;7.738;2023-05-10T04:42:00;6.43;;;3.65;;
54145;SDS011;65909;49.422;7.738;2023-05-10T04:44:27;9.40;;;3.58;;
54145;SDS011;65909;49.422;7.738;2023-05-10T04:46:53;6.50;;;3.45;;
54145;SDS011;65909;49.422;7.738;2023-05-10T04:49:18;7.47;;;3.80;;
54145;SDS011;65909;49.422;7.738;2023-05-10T04:51:44;9.73;;;3.80;;
54145;SDS011;65909;49.422;7.738;2023-05-10T04:54:09;9.07;;;3.95;;
54145;SDS011;65909;49.422;7.738;2023-05-10T04:56:35;7.38;;;4.18;;
54145;SDS011;65909;49.422;7.738;2023-05-10T04:59:00;8.05;;;4.15;;
54145;SDS011;65909;49.422;7.738;2023-05-10T05:01:26;8.15;;;3.75;;
54145;SDS011;65909;49.422;7.738;2023-05-10T05:03:51;12.20;;;3.92;;
54145;SDS011;65909;49.422;7.738;2023-05-10T05:06:17;7.32;;;3.55;;
54145;SDS011;65909;49.422;7.738;2023-05-10T05:08:43;11.60;;;4.82;;
54145;SDS011;65909;49.422;7.738;2023-05-10T05:11:08;8.02;;;4.38;;
54145;SDS011;65909;49.422;7.738;2023-05-10T05:13:34;8.93;;;3.60;;
54145;SDS011;65909;49.422;7.738;2023-05-10T05:16:00;6.85;;;3.60;;
54145;SDS011;65909;49.422;7.738;2023-05-10T05:18:26;12.13;;;4.07;;
54145;SDS011;65909;49.422;7.738;2023-05-10T05:20:51;8.38;;;3.65;;
54145;SDS011;65909;49.422;7.738;2023-05-10T05:23:17;9.15;;;4.18;;
54145;SDS011;65909;49.422;7.738;2023-05-10T05:25:43;9.15;;;4.38;;
54145;SDS011;65909;49.422;7.738;2023-05-10T05:28:08;14.18;;;5.32;;
54145;SDS011;65909;49.422;7.738;2023-05-10T05:30:34;10.80;;;4.72;;
54145;SDS011;65909;49.422;7.738;2023-05-10T05:32:59;11.82;;;4.80;;
54145;SDS011;65909;49.422;7.738;2023-05-10T05:35:24;9.10;;;4.38;;
54145;SDS011;65909;49.422;7.738;2023-05-10T05:37:50;8.15;;;4.88;;
54145;SDS011;65909;49.422;7.738;2023-05-10T05:40:15;8.73;;;4.85;;
54145;SDS011;65909;49.422;7.738;2023-05-10T05:42:41;8.23;;;4.60;;
54145;SDS011;65909;49.422;7.738;2023-05-10T05:45:06;8.25;;;4.30;;
54145;SDS011;65909;49.422;7.738;2023-05-10T05:47:33;11.90;;;4.78;;
54145;SDS011;65909;49.422;7.738;2023-05-10T05:49:59;9.65;;;4.93;;
54145;SDS011;65909;49.422;7.738;2023-05-10T05:52:24;9.88;;;4.53;;
54145;SDS011;65909;49.422;7.738;2023-05-10T05:54:49;12.23;;;5.40;;
54145;SDS011;65909;49.422;7.738;2023-05-10T05:57:15;10.25;;;4.60;;
54145;SDS011;65909;49.422;7.738;2023-05-10T05:59:40;11.52;;;4.75;;
54145;SDS011;65909;49.422;7.738;2023-05-10T06:02:09;11.73;;;4.50;;
54145;SDS011;65909;49.422;7.738;2023-05-10T06:04:34;10.48;;;4.95;;
54145;SDS011;65909;49.422;7.738;2023-05-10T06:07:00;9.68;;;4.70;;
54145;SDS011;65909;49.422;7.738;2023-05-10T06:09:25;10.18;;;5.10;;
54145;SDS011;65909;49.422;7.738;2023-05-10T06:11:50;9.75;;;5.03;;
54145;SDS011;65909;49.422;7.738;2023-05-10T06:14:16;11.70;;;4.70;;
54145;SDS011;65909;49.422;7.738;2023-05-10T06:16:41;9.38;;;4.75;;
54145;SDS011;65909;49.422;7.738;2023-05-10T06:19:07;13.02;;;5.47;;
54145;SDS011;65909;49.422;7.738;2023-05-10T06:21:32;8.45;;;4.63;;
54145;SDS011;65909;49.422;7.738;2023-05-10T06:23:57;9.20;;;5.57;;
54145;SDS011;65909;49.422;7.738;2023-05-10T06:26:23;11.80;;;5.60;;
54145;SDS011;65909;49.422;7.738;2023-05-10T06:28:48;8.32;;;5.03;;
54145;SDS011;65909;49.422;7.738;2023-05-10T06:31:13;10.10;;;4.68;;
54145;SDS011;65909;49.422;7.738;2023-05-10T06:33:39;10.10;;;5.60;;
54145;SDS011;65909;49.422;7.738;2023-05-10T06:36:04;12.32;;;5.18;;
54145;SDS011;65909;49.422;7.738;2023-05-10T06:38:30;11.20;;;5.50;;
54145;SDS011;65909;49.422;7.738;2023-05-10T06:40:55;7.72;;;4.88;;
54145;SDS011;65909;49.422;7.738;2023-05-10T06:43:20;9.50;;;4.88;;
54145;SDS011;65909;49.422;7.738;2023-05-10T06:45:47;10.60;;;5.22;;
54145;SDS011;65909;49.422;7.738;2023-05-10T06:48:13;11.90;;;4.63;;
54145;SDS011;65909;49.422;7.738;2023-05-10T06:50:38;8.50;;;4.97;;
54145;SDS011;65909;49.422;7.738;2023-05-10T06:53:04;9.57;;;5.15;;
54145;SDS011;65909;49.422;7.738;2023-05-10T06:55:29;9.65;;;5.53;;
54145;SDS011;65909;49.422;7.738;2023-05-10T06:57:54;10.55;;;4.88;;
54145;SDS011;65909;49.422;7.738;2023-05-10T07:00:20;10.23;;;4.75;;
54145;SDS011;65909;49.422;7.738;2023-05-10T07:02:45;8.20;;;4.47;;
54145;SDS011;65909;49.422;7.738;2023-05-10T07:05:11;6.25;;;4.32;;
54145;SDS011;65909;49.422;7.738;2023-05-10T07:07:37;11.75;;;5.70;;
54145;SDS011;65909;49.422;7.738;2023-05-10T07:10:03;7.57;;;4.80;;
54145;SDS011;65909;49.422;7.738;2023-05-10T07:12:28;7.97;;;4.65;;
54145;SDS011;65909;49.422;7.738;2023-05-10T07:14:54;6.43;;;4.40;;
54145;SDS011;65909;49.422;7.738;2023-05-10T07:17:19;9.07;;;5.07;;
54145;SDS011;65909;49.422;7.738;2023-05-10T07:19:45;8.15;;;4.72;;
54145;SDS011;65909;49.422;7.738;2023-05-10T07:22:10;7.55;;;4.70;;
54145;SDS011;65909;49.422;7.738;2023-05-10T07:24:36;6.43;;;4.25;;
54145;SDS011;65909;49.422;7.738;2023-05-10T07:27:01;7.68;;;4.70;;
54145;SDS011;65909;49.422;7.738;2023-05-10T07:29:27;7.40;;;3.60;;
54145;SDS011;65909;49.422;7.738;2023-05-10T07:31:53;6.55;;;3.67;;
54145;SDS011;65909;49.422;7.738;2023-05-10T07:34:19;5.90;;;4.00;;
54145;SDS011;65909;49.422;7.738;2023-05-10T07:36:44;4.72;;;3.38;;
54145;SDS011;65909;49.422;7.738;2023-05-10T07:39:09;6.78;;;3.60;;
54145;SDS011;65909;49.422;7.738;2023-05-10T07:41:35;5.35;;;3.97;;
54145;SDS011;65909;49.422;7.738;2023-05-10T07:44:02;3.55;;;2.58;;
54145;SDS011;65909;49.422;7.738;2023-05-10T07:46:28;4.70;;;3.30;;
54145;SDS011;65909;49.422;7.738;2023-05-10T07:48:53;4.50;;;3.50;;
54145;SDS011;65909;49.422;7.738;2023-05-10T07:51:19;4.78;;;3.30;;
54145;SDS011;65909;49.422;7.738;2023-05-10T07:53:44;5.35;;;3.30;;
54145;SDS011;65909;49.422;7.738;2023-05-10T07:56:26;5.03;;;3.97;;
54145;SDS011;65909;49.422;7.738;2023-05-10T07:58:54;7.53;;;4.40;;
54145;SDS011;65909;49.422;7.738;2023-05-10T08:01:24;6.68;;;4.05;;
54145;SDS011;65909;49.422;7.738;2023-05-10T08:03:49;8.50;;;3.78;;
54145;SDS011;65909;49.422;7.738;2023-05-10T08:06:16;5.13;;;3.38;;
54145;SDS011;65909;49.422;7.738;2023-05-10T08:08:43;5.53;;;3.88;;
54145;SDS011;65909;49.422;7.738;2023-05-10T08:11:10;9.38;;;3.88;;
54145;SDS011;65909;49.422;7.738;2023-05-10T08:13:36;5.95;;;3.42;;
54145;SDS011;65909;49.422;7.738;2023-05-10T08:16:01;4.95;;;3.22;;
54145;SDS011;65909;49.422;7.738;2023-05-10T08:18:27;8.35;;;4.38;;
54145;SDS011;65909;49.422;7.738;2023-05-10T08:20:53;5.57;;;3.50;;
54145;SDS011;65909;49.422;7.738;2023-05-10T08:23:18;7.00;;;3.63;;
54145;SDS011;65909;49.422;7.738;2023-05-10T08:25:44;6.18;;;3.28;;
54145;SDS011;65909;49.422;7.738;2023-05-10T08:28:09;5.10;;;3.40;;
54145;SDS011;65909;49.422;7.738;2023-05-10T08:30:35;6.43;;;3.30;;
54145;SDS011;65909;49.422;7.738;2023-05-10T08:33:00;5.00;;;3.50;;
54145;SDS011;65909;49.422;7.738;2023-05-10T08:35:25;4.88;;;2.88;;
54145;SDS011;65909;49.422;7.738;2023-05-10T08:37:51;4.80;;;3.00;;
54145;SDS011;65909;49.422;7.738;2023-05-10T08:40:16;7.07;;;3.05;;
54145;SDS011;65909;49.422;7.738;2023-05-10T08:42:49;5.90;;;3.33;;
54145;SDS011;65909;49.422;7.738;2023-05-10T08:45:20;7.65;;;3.42;;
54145;SDS011;65909;49.422;7.738;2023-05-10T08:47:48;5.75;;;3.22;;
54145;SDS011;65909;49.422;7.738;2023-05-10T08:50:14;4.93;;;3.20;;
54145;SDS011;65909;49.422;7.738;2023-05-10T08:52:41;4.75;;;2.40;;
54145;SDS011;65909;49.422;7.738;2023-05-10T08:55:07;5.25;;;2.80;;
54145;SDS011;65909;49.422;7.738;2023-05-10T08:57:32;3.88;;;2.65;;
54145;SDS011;65909;49.422;7.738;2023-05-10T08:59:59;6.15;;;2.50;;
54145;SDS011;65909;49.422;7.738;2023-05-10T09:02:26;7.78;;;2.38;;
54145;SDS011;65909;49.422;7.738;2023-05-10T09:04:51;5.00;;;2.55;;
54145;SDS011;65909;49.422;7.738;2023-05-10T09:07:17;4.35;;;2.38;;
54145;SDS011;65909;49.422;7.738;2023-05-10T09:09:43;5.30;;;2.92;;
54145;SDS011;65909;49.422;7.738;2023-05-10T09:12:09;3.50;;;2.50;;
54145;SDS011;65909;49.422;7.738;2023-05-10T09:14:36;3.88;;;2.47;;
54145;SDS011;65909;49.422;7.738;2023-05-10T09:17:03;5.18;;;3.05;;
54145;SDS011;65909;49.422;7.738;2023-05-10T09:19:29;5.47;;;2.42;;
54145;SDS011;65909;49.422;7.738;2023-05-10T09:21:54;5.10;;;2.63;;
54145;SDS011;65909;49.422;7.738;2023-05-10T09:24:20;3.67;;;2.08;;
54145;SDS011;65909;49.422;7.738;2023-05-10T09:26:50;5.55;;;2.30;;
54145;SDS011;65909;49.422;7.738;2023-05-10T09:29:16;3.33;;;2.05;;
54145;SDS011;65909;49.422;7.738;2023-05-10T09:31:48;4.55;;;2.35;;
54145;SDS011;65909;49.422;7.738;2023-05-10T09:34:20;8.50;;;2.40;;
54145;SDS011;65909;49.422;7.738;2023-05-10T09:36:58;3.10;;;2.10;;
54145;SDS011;65909;49.422;7.738;2023-05-10T09:39:35;5.53;;;2.05;;
54145;SDS011;65909;49.422;7.738;2023-05-10T09:42:02;3.47;;;2.15;;
54145;SDS011;65909;49.422;7.738;2023-05-10T09:44:30;4.10;;;2.15;;
54145;SDS011;65909;49.422;7.738;2023-05-10T09:46:56;6.00;;;2.10;;
54145;SDS011;65909;49.422;7.738;2023-05-10T09:49:22;5.78;;;2.38;;
54145;SDS011;65909;49.422;7.738;2023-05-10T09:51:47;4.68;;;2.33;;
54145;SDS011;65909;49.422;7.738;2023-05-10T09:54:24;4.50;;;2.97;;
54145;SDS011;65909;49.422;7.738;2023-05-10T09:56:50;5.18;;;2.75;;
54145;SDS011;65909;49.422;7.738;2023-05-10T09:59:15;4.40;;;2.63;;
54145;SDS011;65909;49.422;7.738;2023-05-10T10:01:41;5.38;;;2.53;;
54145;SDS011;65909;49.422;7.738;2023-05-10T10:04:13;4.13;;;1.88;;
54145;SDS011;65909;49.422;7.738;2023-05-10T10:06:39;2.22;;;1.60;;
54145;SDS011;65909;49.422;7.738;2023-05-10T10:09:06;2.30;;;1.95;;
54145;SDS011;65909;49.422;7.738;2023-05-10T10:11:36;2.38;;;1.88;;
54145;SDS011;65909;49.422;7.738;2023-05-10T10:14:03;4.55;;;1.90;;
54145;SDS011;65909;49.422;7.738;2023-05-10T10:16:29;6.63;;;3.20;;
54145;SDS011;65909;49.422;7.738;2023-05-10T10:18:55;2.70;;;1.42;;
54145;SDS011;65909;49.422;7.738;2023-05-10T10:21:21;3.78;;;2.30;;
54145;SDS011;65909;49.422;7.738;2023-05-10T10:23:47;1.98;;;1.45;;
54145;SDS011;65909;49.422;7.738;2023-05-10T10:26:12;2.90;;;1.60;;
54145;SDS011;65909;49.422;7.738;2023-05-10T10:31:13;2.22;;;1.50;;
54145;SDS011;65909;49.422;7.738;2023-05-10T10:36:39;2.20;;;1.30;;
54145;SDS011;65909;49.422;7.738;2023-05-10T10:39:08;4.88;;;1.67;;
54145;SDS011;65909;49.422;7.738;2023-05-10T10:41:35;3.28;;;1.40;;
54145;SDS011;65909;49.422;7.738;2023-05-10T10:52:32;2.78;;;1.50;;
54145;SDS011;65909;49.422;7.738;2023-05-10T10:55:12;2.15;;;1.50;;
54145;SDS011;65909;49.422;7.738;2023-05-10T11:02:48;2.50;;;1.40;;
54145;SDS011;65909;49.422;7.738;2023-05-10T11:05:39;3.30;;;1.30;;
54145;SDS011;65909;49.422;7.738;2023-05-10T11:08:11;3.83;;;1.20;;
54145;SDS011;65909;49.422;7.738;2023-05-10T11:16:15;1.80;;;0.88;;
54145;SDS011;65909;49.422;7.738;2023-05-10T11:21:24;2.58;;;0.90;;
54145;SDS011;65909;49.422;7.738;2023-05-10T11:23:50;0.80;;;0.80;;
54145;SDS011;65909;49.422;7.738;2023-05-10T11:26:20;2.28;;;1.00;;
54145;SDS011;65909;49.422;7.738;2023-05-10T11:28:50;2.35;;;1.10;;
54145;SDS011;65909;49.422;7.738;2023-05-10T11:31:16;2.83;;;1.10;;
54145;SDS011;65909;49.422;7.738;2023-05-10T11:33:46;2.10;;;0.90;;
54145;SDS011;65909;49.422;7.738;2023-05-10T11:36:14;1.83;;;0.90;;
54145;SDS011;65909;49.422;7.738;2023-05-10T11:38:43;2.22;;;1.05;;
54145;SDS011;65909;49.422;7.738;2023-05-10T11:41:10;1.35;;;1.17;;
54145;SDS011;65909;49.422;7.738;2023-05-10T11:43:36;2.58;;;1.45;;
54145;SDS011;65909;49.422;7.738;2023-05-10T11:46:06;2.47;;;1.38;;
54145;SDS011;65909;49.422;7.738;2023-05-10T11:48:33;2.90;;;1.38;;
54145;SDS011;65909;49.422;7.738;2023-05-10T11:50:58;2.00;;;1.65;;
54145;SDS011;65909;49.422;7.738;2023-05-10T11:53:26;1.63;;;1.23;;
54145;SDS011;65909;49.422;7.738;2023-05-10T11:55:52;2.05;;;1.20;;
54145;SDS011;65909;49.422;7.738;2023-05-10T11:58:18;4.20;;;1.60;;
54145;SDS011;65909;49.422;7.738;2023-05-10T12:00:44;3.95;;;2.13;;
54145;SDS011;65909;49.422;7.738;2023-05-10T12:03:10;2.97;;;2.08;;
54145;SDS011;65909;49.422;7.738;2023-05-10T12:05:36;1.77;;;1.25;;
54145;SDS011;65909;49.422;7.738;2023-05-10T12:08:14;2.30;;;0.95;;
54145;SDS011;65909;49.422;7.738;2023-05-10T12:10:41;2.13;;;0.95;;
54145;SDS011;65909;49.422;7.738;2023-05-10T12:13:13;1.80;;;1.00;;
54145;SDS011;65909;49.422;7.738;2023-05-10T12:15:39;1.92;;;0.98;;
54145;SDS011;65909;49.422;7.738;2023-05-10T12:18:05;4.25;;;1.10;;
54145;SDS011;65909;49.422;7.738;2023-05-10T12:20:30;1.98;;;1.00;;
54145;SDS011;65909;49.422;7.738;2023-05-10T12:22:57;2.08;;;0.98;;
54145;SDS011;65909;49.422;7.738;2023-05-10T12:25:24;1.60;;;1.10;;
54145;SDS011;65909;49.422;7.738;2023-05-10T12:27:55;1.38;;;0.85;;
54145;SDS011;65909;49.422;7.738;2023-05-10T12:30:23;1.00;;;0.90;;
54145;SDS011;65909;49.422;7.738;2023-05-10T12:32:50;1.30;;;0.88;;
54145;SDS011;65909;49.422;7.738;2023-05-10T12:35:16;1.67;;;1.10;;
54145;SDS011;65909;49.422;7.738;2023-05-10T12:37:42;1.00;;;0.90;;
54145;SDS011;65909;49.422;7.738;2023-05-10T12:40:08;1.10;;;0.70;;
54145;SDS011;65909;49.422;7.738;2023-05-10T12:42:36;1.15;;;0.98;;
54145;SDS011;65909;49.422;7.738;2023-05-10T12:45:02;1.58;;;0.93;;
54145;SDS011;65909;49.422;7.738;2023-05-10T12:47:29;1.00;;;0.90;;
54145;SDS011;65909;49.422;7.738;2023-05-10T12:49:55;4.18;;;1.10;;
54145;SDS011;65909;49.422;7.738;2023-05-10T12:52:20;1.75;;;1.05;;
54145;SDS011;65909;49.422;7.738;2023-05-10T12:54:46;0.90;;;0.90;;
54145;SDS011;65909;49.422;7.738;2023-05-10T12:57:12;2.08;;;1.05;;
54145;SDS011;65909;49.422;7.738;2023-05-10T12:59:38;2.88;;;0.80;;
54145;SDS011;65909;49.422;7.738;2023-05-10T13:02:03;2.20;;;1.00;;
54145;SDS011;65909;49.422;7.738;2023-05-10T13:04:29;2.65;;;0.90;;
54145;SDS011;65909;49.422;7.738;2023-05-10T13:06:54;1.33;;;1.05;;
54145;SDS011;65909;49.422;7.738;2023-05-10T13:09:23;2.50;;;0.98;;
54145;SDS011;65909;49.422;7.738;2023-05-10T13:11:49;3.05;;;0.90;;
54145;SDS011;65909;49.422;7.738;2023-05-10T13:14:15;1.55;;;0.95;;
54145;SDS011;65909;49.422;7.738;2023-05-10T13:16:40;3.35;;;1.00;;
54145;SDS011;65909;49.422;7.738;2023-05-10T13:19:06;2.72;;;1.40;;
54145;SDS011;65909;49.422;7.738;2023-05-10T13:21:31;1.13;;;1.02;;
54145;SDS011;65909;49.422;7.738;2023-05-10T13:23:57;1.38;;;1.00;;
54145;SDS011;65909;49.422;7.738;2023-05-10T13:26:23;1.45;;;1.20;;
54145;SDS011;65909;49.422;7.738;2023-05-10T13:28:48;1.98;;;1.02;;
54145;SDS011;65909;49.422;7.738;2023-05-10T13:31:14;1.17;;;0.90;;
54145;SDS011;65909;49.422;7.738;2023-05-10T13:33:40;0.70;;;0.70;;
54145;SDS011;65909;49.422;7.738;2023-05-10T13:36:05;1.50;;;0.85;;
54145;SDS011;65909;49.422;7.738;2023-05-10T13:38:31;2.63;;;1.58;;
54145;SDS011;65909;49.422;7.738;2023-05-10T13:40:56;2.53;;;0.80;;
54145;SDS011;65909;49.422;7.738;2023-05-10T13:43:23;2.15;;;0.80;;
54145;SDS011;65909;49.422;7.738;2023-05-10T13:45:48;0.70;;;0.70;;
54145;SDS011;65909;49.422;7.738;2023-05-10T13:48:14;1.95;;;1.00;;
54145;SDS011;65909;49.422;7.738;2023-05-10T13:50:39;1.20;;;0.85;;
54145;SDS011;65909;49.422;7.738;2023-05-10T13:53:05;0.80;;;0.70;;
54145;SDS011;65909;49.422;7.738;2023-05-10T13:55:30;0.80;;;0.80;;
54145;SDS011;65909;49.422;7.738;2023-05-10T13:57:56;2.42;;;1.00;;
54145;SDS011;65909;49.422;7.738;2023-05-10T14:00:21;1.50;;;1.10;;
54145;SDS011;65909;49.422;7.738;2023-05-10T14:02:46;2.85;;;1.40;;
54145;SDS011;65909;49.422;7.738;2023-05-10T14:05:12;1.40;;;0.85;;
54145;SDS011;65909;49.422;7.738;2023-05-10T14:07:37;1.13;;;0.80;;
54145;SDS011;65909;49.422;7.738;2023-05-10T14:10:03;3.35;;;1.00;;
54145;SDS011;65909;49.422;7.738;2023-05-10T14:12:28;1.20;;;0.88;;
54145;SDS011;65909;49.422;7.738;2023-05-10T14:14:54;1.02;;;0.70;;
54145;SDS011;65909;49.422;7.738;2023-05-10T14:17:19;0.70;;;0.70;;
54145;SDS011;65909;49.422;7.738;2023-05-10T14:19:44;2.22;;;0.82;;
54145;SDS011;65909;49.422;7.738;2023-05-10T14:22:10;0.80;;;0.80;;
54145;SDS011;65909;49.422;7.738;2023-05-10T14:24:35;0.90;;;0.70;;
54145;SDS011;65909;49.422;7.738;2023-05-10T14:27:01;2.40;;;0.70;;
54145;SDS011;65909;49.422;7.738;2023-05-10T14:29:26;0.77;;;0.57;;
54145;SDS011;65909;49.422;7.738;2023-05-10T14:31:52;1.75;;;0.55;;
54145;SDS011;65909;49.422;7.738;2023-05-10T14:34:17;0.77;;;0.50;;
54145;SDS011;65909;49.422;7.738;2023-05-10T14:36:42;0.95;;;0.63;;
54145;SDS011;65909;49.422;7.738;2023-05-10T14:39:08;2.17;;;0.75;;
54145;SDS011;65909;49.422;7.738;2023-05-10T14:41:35;2.30;;;1.08;;
54145;SDS011;65909;49.422;7.738;2023-05-10T14:44:00;1.17;;;0.77;;
54145;SDS011;65909;49.422;7.738;2023-05-10T14:46:28;2.40;;;0.63;;
54145;SDS011;65909;49.422;7.738;2023-05-10T14:48:54;0.88;;;0.88;;
54145;SDS011;65909;49.422;7.738;2023-05-10T14:51:20;0.80;;;0.70;;
54145;SDS011;65909;49.422;7.738;2023-05-10T14:53:46;0.77;;;0.60;;
54145;SDS011;65909;49.422;7.738;2023-05-10T14:56:13;0.70;;;0.70;;
54145;SDS011;65909;49.422;7.738;2023-05-10T14:58:38;1.38;;;1.08;;
54145;SDS011;65909;49.422;7.738;2023-05-10T15:01:03;1.05;;;0.80;;
54145;SDS011;65909;49.422;7.738;2023-05-10T15:03:29;2.17;;;0.88;;
54145;SDS011;65909;49.422;7.738;2023-05-10T15:05:54;1.85;;;0.80;;
54145;SDS011;65909;49.422;7.738;2023-05-10T15:08:21;4.30;;;0.80;;
54145;SDS011;65909;49.422;7.738;2023-05-10T15:10:46;0.95;;;0.70;;
54145;SDS011;65909;49.422;7.738;2023-05-10T15:13:11;0.60;;;0.60;;
54145;SDS011;65909;49.422;7.738;2023-05-10T15:15:37;1.20;;;0.52;;
54145;SDS011;65909;49.422;7.738;2023-05-10T15:18:02;0.70;;;0.70;;
54145;SDS011;65909;49.422;7.738;2023-05-10T15:20:28;1.10;;;0.70;;
54145;SDS011;65909;49.422;7.738;2023-05-10T15:22:53;0.60;;;0.60;;
54145;SDS011;65909;49.422;7.738;2023-05-10T15:25:19;1.33;;;0.70;;
54145;SDS011;65909;49.422;7.738;2023-05-10T15:27:44;2.22;;;0.70;;
54145;SDS011;65909;49.422;7.738;2023-05-10T15:30:10;0.75;;;0.60;;
54145;SDS011;65909;49.422;7.738;2023-05-10T15:32:35;1.02;;;0.57;;
54145;SDS011;65909;49.422;7.738;2023-05-10T15:35:02;2.50;;;0.68;;